sensor_id;sensor_type;location;lat;lon;timestamp;P1;durP1;ratioP1;P2;durP2;ratioP2
35243;SDS011;37916;52.160;21.066;2023-08-21T00:06:08;18.75;;;16.55;;
35243;SDS011;37916;52.160;21.066;2023-08-21T00:16:09;18.00;;;15.95;;
35243;SDS011;37916;52.160;21.066;2023-08-21T00:26:10;18.08;;;16.27;;
35243;SDS011;37916;52.160;21.066;2023-08-21T00:36:11;19.88;;;17.67;;
35243;SDS011;37916;52.160;21.066;2023-08-21T00:46:12;19.75;;;17.67;;
35243;SDS011;37916;52.160;21.066;2023-08-21T00:56:14;19.88;;;17.77;;
35243;SDS011;37916;52.160;21.066;2023-08-21T01:06:15;18.92;;;17.02;;
35243;SDS011;37916;52.160;21.066;2023-08-21T01:16:16;17.40;;;15.60;;
35243;SDS011;37916;52.160;21.066;2023-08-21T01:26:17;19.38;;;17.42;;
35243;SDS011;37916;52.160;21.066;2023-08-21T01:36:18;19.45;;;16.88;;
35243;SDS011;37916;52.160;21.066;2023-08-21T01:46:21;20.37;;;17.40;;
35243;SDS011;37916;52.160;21.066;2023-08-21T01:56:22;20.02;;;17.52;;
35243;SDS011;37916;52.160;21.066;2023-08-21T02:06:23;19.52;;;17.45;;
35243;SDS011;37916;52.160;21.066;2023-08-21T02:16:24;21.17;;;18.70;;
35243;SDS011;37916;52.160;21.066;2023-08-21T02:26:25;20.30;;;18.10;;
35243;SDS011;37916;52.160;21.066;2023-08-21T02:36:26;22.23;;;18.33;;
35243;SDS011;37916;52.160;21.066;2023-08-21T02:46:27;23.08;;;19.13;;
35243;SDS011;37916;52.160;21.066;2023-08-21T02:56:28;21.83;;;19.55;;
35243;SDS011;37916;52.160;21.066;2023-08-21T03:06:29;21.02;;;18.80;;
35243;SDS011;37916;52.160;21.066;2023-08-21T03:16:30;23.17;;;20.55;;
35243;SDS011;37916;52.160;21.066;2023-08-21T03:26:31;21.17;;;18.88;;
35243;SDS011;37916;52.160;21.066;2023-08-21T03:36:32;21.63;;;19.48;;
35243;SDS011;37916;52.160;21.066;2023-08-21T03:46:33;21.98;;;19.58;;
35243;SDS011;37916;52.160;21.066;2023-08-21T03:56:34;26.25;;;20.55;;
35243;SDS011;37916;52.160;21.066;2023-08-21T04:06:35;22.92;;;19.63;;
35243;SDS011;37916;52.160;21.066;2023-08-21T04:16:36;24.30;;;20.67;;
35243;SDS011;37916;52.160;21.066;2023-08-21T04:26:37;21.80;;;19.45;;
35243;SDS011;37916;52.160;21.066;2023-08-21T04:36:46;22.63;;;19.40;;
35243;SDS011;37916;52.160;21.066;2023-08-21T04:46:49;23.02;;;19.75;;
35243;SDS011;37916;52.160;21.066;2023-08-21T04:56:50;22.30;;;18.85;;
35243;SDS011;37916;52.160;21.066;2023-08-21T05:06:51;24.52;;;20.35;;
35243;SDS011;37916;52.160;21.066;2023-08-21T05:16:52;20.40;;;18.15;;
35243;SDS011;37916;52.160;21.066;2023-08-21T05:26:53;21.90;;;18.25;;
35243;SDS011;37916;52.160;21.066;2023-08-21T05:36:54;24.55;;;19.40;;
35243;SDS011;37916;52.160;21.066;2023-08-21T05:46:56;21.20;;;18.20;;
35243;SDS011;37916;52.160;21.066;2023-08-21T05:56:57;19.63;;;17.52;;
35243;SDS011;37916;52.160;21.066;2023-08-21T06:06:58;21.40;;;17.98;;
35243;SDS011;37916;52.160;21.066;2023-08-21T06:16:59;21.85;;;18.00;;
35243;SDS011;37916;52.160;21.066;2023-08-21T06:27:04;20.40;;;18.10;;
35243;SDS011;37916;52.160;21.066;2023-08-21T06:37:05;23.48;;;17.63;;
35243;SDS011;37916;52.160;21.066;2023-08-21T06:47:06;19.65;;;17.67;;
35243;SDS011;37916;52.160;21.066;2023-08-21T06:57:07;20.40;;;18.30;;
35243;SDS011;37916;52.160;21.066;2023-08-21T07:07:08;20.73;;;18.38;;
35243;SDS011;37916;52.160;21.066;2023-08-21T07:17:09;19.80;;;17.80;;
35243;SDS011;37916;52.160;21.066;2023-08-21T07:27:10;21.15;;;18.95;;
35243;SDS011;37916;52.160;21.066;2023-08-21T07:37:11;22.65;;;18.35;;
35243;SDS011;37916;52.160;21.066;2023-08-21T07:47:12;20.40;;;18.25;;
35243;SDS011;37916;52.160;21.066;2023-08-21T07:57:13;23.23;;;17.70;;
35243;SDS011;37916;52.160;21.066;2023-08-21T08:07:14;17.85;;;16.05;;
35243;SDS011;37916;52.160;21.066;2023-08-21T08:17:15;19.15;;;17.20;;
35243;SDS011;37916;52.160;21.066;2023-08-21T08:27:16;15.38;;;13.85;;
35243;SDS011;37916;52.160;21.066;2023-08-21T08:37:17;13.97;;;12.53;;
35243;SDS011;37916;52.160;21.066;2023-08-21T08:47:18;16.13;;;13.27;;
35243;SDS011;37916;52.160;21.066;2023-08-21T08:57:20;13.32;;;11.95;;
35243;SDS011;37916;52.160;21.066;2023-08-21T09:07:21;15.67;;;11.73;;
35243;SDS011;37916;52.160;21.066;2023-08-21T09:17:22;13.03;;;11.70;;
35243;SDS011;37916;52.160;21.066;2023-08-21T09:27:23;14.07;;;10.98;;
35243;SDS011;37916;52.160;21.066;2023-08-21T09:37:27;10.00;;;8.73;;
35243;SDS011;37916;52.160;21.066;2023-08-21T09:47:32;10.18;;;8.05;;
35243;SDS011;37916;52.160;21.066;2023-08-21T10:07:34;5.68;;;4.68;;
35243;SDS011;37916;52.160;21.066;2023-08-21T10:17:36;5.07;;;4.30;;
35243;SDS011;37916;52.160;21.066;2023-08-21T10:27:40;5.20;;;4.70;;
35243;SDS011;37916;52.160;21.066;2023-08-21T10:48:17;6.72;;;4.15;;
35243;SDS011;37916;52.160;21.066;2023-08-21T10:58:18;5.67;;;4.30;;
35243;SDS011;37916;52.160;21.066;2023-08-21T11:08:19;4.70;;;3.20;;
35243;SDS011;37916;52.160;21.066;2023-08-21T11:18:20;5.22;;;4.00;;
35243;SDS011;37916;52.160;21.066;2023-08-21T11:28:27;9.77;;;5.00;;
35243;SDS011;37916;52.160;21.066;2023-08-21T11:38:28;8.02;;;5.15;;
35243;SDS011;37916;52.160;21.066;2023-08-21T11:48:30;4.60;;;3.10;;
35243;SDS011;37916;52.160;21.066;2023-08-21T11:58:31;4.53;;;4.13;;
35243;SDS011;37916;52.160;21.066;2023-08-21T12:08:36;5.10;;;3.28;;
35243;SDS011;37916;52.160;21.066;2023-08-21T12:18:38;3.47;;;2.60;;
35243;SDS011;37916;52.160;21.066;2023-08-21T12:28:39;4.20;;;3.00;;
35243;SDS011;37916;52.160;21.066;2023-08-21T12:38:42;4.50;;;2.80;;
35243;SDS011;37916;52.160;21.066;2023-08-21T12:48:43;5.80;;;3.45;;
35243;SDS011;37916;52.160;21.066;2023-08-21T12:58:59;5.72;;;2.50;;
35243;SDS011;37916;52.160;21.066;2023-08-21T13:09:00;4.23;;;2.23;;
35243;SDS011;37916;52.160;21.066;2023-08-21T13:19:03;6.30;;;2.80;;
35243;SDS011;37916;52.160;21.066;2023-08-21T13:29:04;5.07;;;2.07;;
35243;SDS011;37916;52.160;21.066;2023-08-21T13:39:07;7.47;;;2.33;;
35243;SDS011;37916;52.160;21.066;2023-08-21T13:49:10;2.83;;;1.98;;
35243;SDS011;37916;52.160;21.066;2023-08-21T13:59:13;3.47;;;1.70;;
35243;SDS011;37916;52.160;21.066;2023-08-21T14:09:14;2.25;;;1.40;;
35243;SDS011;37916;52.160;21.066;2023-08-21T14:19:15;4.07;;;1.80;;
35243;SDS011;37916;52.160;21.066;2023-08-21T14:29:16;3.10;;;1.77;;
35243;SDS011;37916;52.160;21.066;2023-08-21T14:49:29;3.88;;;1.30;;
35243;SDS011;37916;52.160;21.066;2023-08-21T14:59:30;1.87;;;1.20;;
35243;SDS011;37916;52.160;21.066;2023-08-21T15:09:31;3.17;;;1.17;;
35243;SDS011;37916;52.160;21.066;2023-08-21T15:19:32;2.78;;;1.33;;
35243;SDS011;37916;52.160;21.066;2023-08-21T15:29:33;5.20;;;1.40;;
35243;SDS011;37916;52.160;21.066;2023-08-21T15:39:34;3.67;;;1.70;;
35243;SDS011;37916;52.160;21.066;2023-08-21T15:49:35;4.20;;;1.25;;
35243;SDS011;37916;52.160;21.066;2023-08-21T15:59:37;2.80;;;1.30;;
35243;SDS011;37916;52.160;21.066;2023-08-21T16:09:38;3.80;;;1.60;;
35243;SDS011;37916;52.160;21.066;2023-08-21T16:19:40;2.65;;;1.05;;
35243;SDS011;37916;52.160;21.066;2023-08-21T16:29:41;5.80;;;1.60;;
35243;SDS011;37916;52.160;21.066;2023-08-21T16:39:42;3.20;;;1.40;;
35243;SDS011;37916;52.160;21.066;2023-08-21T16:49:43;4.05;;;1.60;;
35243;SDS011;37916;52.160;21.066;2023-08-21T16:59:44;3.33;;;1.30;;
35243;SDS011;37916;52.160;21.066;2023-08-21T17:09:45;3.78;;;1.52;;
35243;SDS011;37916;52.160;21.066;2023-08-21T17:19:46;3.30;;;1.50;;
35243;SDS011;37916;52.160;21.066;2023-08-21T17:29:47;3.88;;;1.58;;
35243;SDS011;37916;52.160;21.066;2023-08-21T17:39:51;3.50;;;1.70;;
35243;SDS011;37916;52.160;21.066;2023-08-21T17:49:52;3.47;;;1.95;;
35243;SDS011;37916;52.160;21.066;2023-08-21T17:59:53;4.43;;;1.67;;
35243;SDS011;37916;52.160;21.066;2023-08-21T18:09:54;4.75;;;1.67;;
35243;SDS011;37916;52.160;21.066;2023-08-21T18:19:55;5.47;;;2.30;;
35243;SDS011;37916;52.160;21.066;2023-08-21T18:29:56;5.10;;;1.80;;
35243;SDS011;37916;52.160;21.066;2023-08-21T18:39:58;5.57;;;2.00;;
35243;SDS011;37916;52.160;21.066;2023-08-21T18:49:59;3.63;;;1.67;;
35243;SDS011;37916;52.160;21.066;2023-08-21T19:00:00;4.13;;;1.83;;
35243;SDS011;37916;52.160;21.066;2023-08-21T19:20:04;6.95;;;2.28;;
35243;SDS011;37916;52.160;21.066;2023-08-21T19:30:06;6.35;;;2.90;;
35243;SDS011;37916;52.160;21.066;2023-08-21T19:40:07;3.63;;;2.20;;
35243;SDS011;37916;52.160;21.066;2023-08-21T19:50:08;7.95;;;2.42;;
35243;SDS011;37916;52.160;21.066;2023-08-21T20:00:09;7.22;;;2.53;;
35243;SDS011;37916;52.160;21.066;2023-08-21T20:10:11;7.43;;;2.47;;
35243;SDS011;37916;52.160;21.066;2023-08-21T20:20:12;8.93;;;2.85;;
35243;SDS011;37916;52.160;21.066;2023-08-21T20:30:13;5.22;;;2.58;;
35243;SDS011;37916;52.160;21.066;2023-08-21T20:40:14;8.57;;;2.55;;
35243;SDS011;37916;52.160;21.066;2023-08-21T20:50:15;7.20;;;3.28;;
35243;SDS011;37916;52.160;21.066;2023-08-21T21:00:16;7.63;;;2.78;;
35243;SDS011;37916;52.160;21.066;2023-08-21T21:10:17;8.38;;;2.75;;
35243;SDS011;37916;52.160;21.066;2023-08-21T21:20:18;7.05;;;3.30;;
35243;SDS011;37916;52.160;21.066;2023-08-21T21:30:19;6.53;;;3.28;;
35243;SDS011;37916;52.160;21.066;2023-08-21T21:40:20;6.07;;;3.50;;
35243;SDS011;37916;52.160;21.066;2023-08-21T21:50:21;10.13;;;3.85;;
35243;SDS011;37916;52.160;21.066;2023-08-21T22:00:22;6.53;;;3.88;;
35243;SDS011;37916;52.160;21.066;2023-08-21T22:10:23;8.63;;;4.38;;
35243;SDS011;37916;52.160;21.066;2023-08-21T22:20:25;8.75;;;3.80;;
35243;SDS011;37916;52.160;21.066;2023-08-21T22:30:26;6.00;;;4.43;;
35243;SDS011;37916;52.160;21.066;2023-08-21T22:40:27;8.77;;;4.43;;
35243;SDS011;37916;52.160;21.066;2023-08-21T22:50:28;12.40;;;4.38;;
35243;SDS011;37916;52.160;21.066;2023-08-21T23:00:29;7.63;;;4.78;;
35243;SDS011;37916;52.160;21.066;2023-08-21T23:10:30;10.82;;;4.70;;
35243;SDS011;37916;52.160;21.066;2023-08-21T23:20:31;10.55;;;4.45;;
35243;SDS011;37916;52.160;21.066;2023-08-21T23:30:32;5.75;;;4.60;;
35243;SDS011;37916;52.160;21.066;2023-08-21T23:40:36;12.32;;;4.93;;
35243;SDS011;37916;52.160;21.066;2023-08-21T23:50:37;7.55;;;4.28;;
